sensor_id;sensor_type;location;lat;lon;timestamp;P1;durP1;ratioP1;P2;durP2;ratioP2
68858;SDS011;55864;49.238;8.092;2022-07-31T00:01:06;6.65;;;2.67;;
68858;SDS011;55864;49.238;8.092;2022-07-31T00:03:07;7.43;;;2.55;;
68858;SDS011;55864;49.238;8.092;2022-07-31T00:05:08;5.22;;;2.40;;
68858;SDS011;55864;49.238;8.092;2022-07-31T00:07:10;6.32;;;2.50;;
68858;SDS011;55864;49.238;8.092;2022-07-31T00:09:11;6.53;;;2.45;;
68858;SDS011;55864;49.238;8.092;2022-07-31T00:11:11;6.10;;;2.50;;
68858;SDS011;55864;49.238;8.092;2022-07-31T00:13:12;5.47;;;2.42;;
68858;SDS011;55864;49.238;8.092;2022-07-31T00:15:12;8.18;;;2.38;;
68858;SDS011;55864;49.238;8.092;2022-07-31T00:17:13;5.60;;;2.13;;
68858;SDS011;55864;49.238;8.092;2022-07-31T00:19:13;9.55;;;2.65;;
68858;SDS011;55864;49.238;8.092;2022-07-31T00:21:14;4.75;;;2.20;;
68858;SDS011;55864;49.238;8.092;2022-07-31T00:23:16;5.57;;;2.20;;
68858;SDS011;55864;49.238;8.092;2022-07-31T00:25:17;5.40;;;2.30;;
68858;SDS011;55864;49.238;8.092;2022-07-31T00:27:26;5.68;;;2.50;;
68858;SDS011;55864;49.238;8.092;2022-07-31T00:29:27;7.32;;;2.65;;
68858;SDS011;55864;49.238;8.092;2022-07-31T00:31:27;7.03;;;2.40;;
68858;SDS011;55864;49.238;8.092;2022-07-31T00:33:28;6.32;;;2.47;;
68858;SDS011;55864;49.238;8.092;2022-07-31T00:35:29;6.80;;;2.47;;
68858;SDS011;55864;49.238;8.092;2022-07-31T00:37:29;6.80;;;2.63;;
68858;SDS011;55864;49.238;8.092;2022-07-31T00:39:31;6.32;;;2.33;;
68858;SDS011;55864;49.238;8.092;2022-07-31T00:41:39;6.15;;;2.47;;
68858;SDS011;55864;49.238;8.092;2022-07-31T00:43:40;5.97;;;2.22;;
68858;SDS011;55864;49.238;8.092;2022-07-31T00:45:41;6.05;;;2.58;;
68858;SDS011;55864;49.238;8.092;2022-07-31T00:47:42;5.30;;;2.47;;
68858;SDS011;55864;49.238;8.092;2022-07-31T00:49:42;7.72;;;2.38;;
68858;SDS011;55864;49.238;8.092;2022-07-31T00:51:43;6.18;;;2.17;;
68858;SDS011;55864;49.238;8.092;2022-07-31T00:53:44;6.07;;;2.53;;
68858;SDS011;55864;49.238;8.092;2022-07-31T00:55:46;4.93;;;2.33;;
68858;SDS011;55864;49.238;8.092;2022-07-31T00:57:46;6.18;;;2.55;;
68858;SDS011;55864;49.238;8.092;2022-07-31T00:59:47;5.28;;;2.22;;
68858;SDS011;55864;49.238;8.092;2022-07-31T01:01:48;5.07;;;2.08;;
68858;SDS011;55864;49.238;8.092;2022-07-31T01:03:48;10.02;;;2.80;;
68858;SDS011;55864;49.238;8.092;2022-07-31T01:05:49;6.18;;;2.53;;
68858;SDS011;55864;49.238;8.092;2022-07-31T01:07:50;6.65;;;2.30;;
68858;SDS011;55864;49.238;8.092;2022-07-31T01:09:50;6.18;;;2.47;;
68858;SDS011;55864;49.238;8.092;2022-07-31T01:11:56;5.32;;;2.42;;
68858;SDS011;55864;49.238;8.092;2022-07-31T01:14:00;5.75;;;2.22;;
68858;SDS011;55864;49.238;8.092;2022-07-31T01:16:04;5.82;;;2.58;;
68858;SDS011;55864;49.238;8.092;2022-07-31T01:18:08;5.00;;;2.25;;
68858;SDS011;55864;49.238;8.092;2022-07-31T01:20:11;6.72;;;2.63;;
68858;SDS011;55864;49.238;8.092;2022-07-31T01:22:36;6.68;;;2.55;;
68858;SDS011;55864;49.238;8.092;2022-07-31T01:24:56;6.03;;;2.88;;
68858;SDS011;55864;49.238;8.092;2022-07-31T01:27:16;6.72;;;2.80;;
68858;SDS011;55864;49.238;8.092;2022-07-31T01:29:27;6.38;;;2.50;;
68858;SDS011;55864;49.238;8.092;2022-07-31T01:31:33;6.30;;;2.40;;
68858;SDS011;55864;49.238;8.092;2022-07-31T01:33:42;5.82;;;2.70;;
68858;SDS011;55864;49.238;8.092;2022-07-31T01:35:48;4.85;;;2.35;;
68858;SDS011;55864;49.238;8.092;2022-07-31T01:37:55;5.60;;;2.60;;
68858;SDS011;55864;49.238;8.092;2022-07-31T01:40:07;4.88;;;2.30;;
68858;SDS011;55864;49.238;8.092;2022-07-31T01:42:12;6.63;;;2.42;;
68858;SDS011;55864;49.238;8.092;2022-07-31T01:44:15;4.88;;;2.20;;
68858;SDS011;55864;49.238;8.092;2022-07-31T01:46:22;6.85;;;2.50;;
68858;SDS011;55864;49.238;8.092;2022-07-31T01:48:25;6.30;;;2.72;;
68858;SDS011;55864;49.238;8.092;2022-07-31T01:50:26;5.60;;;2.60;;
68858;SDS011;55864;49.238;8.092;2022-07-31T01:52:28;5.68;;;2.45;;
68858;SDS011;55864;49.238;8.092;2022-07-31T01:54:30;5.20;;;2.42;;
68858;SDS011;55864;49.238;8.092;2022-07-31T01:56:34;6.57;;;3.10;;
68858;SDS011;55864;49.238;8.092;2022-07-31T01:58:37;6.90;;;2.50;;
68858;SDS011;55864;49.238;8.092;2022-07-31T02:00:46;6.20;;;2.78;;
68858;SDS011;55864;49.238;8.092;2022-07-31T02:02:49;6.03;;;2.47;;
68858;SDS011;55864;49.238;8.092;2022-07-31T02:04:51;5.88;;;2.70;;
68858;SDS011;55864;49.238;8.092;2022-07-31T02:06:54;5.32;;;2.60;;
68858;SDS011;55864;49.238;8.092;2022-07-31T02:08:55;7.25;;;2.65;;
68858;SDS011;55864;49.238;8.092;2022-07-31T02:10:57;6.32;;;2.58;;
68858;SDS011;55864;49.238;8.092;2022-07-31T02:12:59;5.15;;;2.45;;
68858;SDS011;55864;49.238;8.092;2022-07-31T02:15:03;7.25;;;2.60;;
68858;SDS011;55864;49.238;8.092;2022-07-31T02:17:07;6.35;;;2.90;;
68858;SDS011;55864;49.238;8.092;2022-07-31T02:19:29;7.38;;;2.70;;
68858;SDS011;55864;49.238;8.092;2022-07-31T02:21:31;5.88;;;2.80;;
68858;SDS011;55864;49.238;8.092;2022-07-31T02:23:32;6.35;;;2.60;;
68858;SDS011;55864;49.238;8.092;2022-07-31T02:25:33;4.97;;;2.40;;
68858;SDS011;55864;49.238;8.092;2022-07-31T02:27:37;8.68;;;2.78;;
68858;SDS011;55864;49.238;8.092;2022-07-31T02:29:39;6.10;;;2.83;;
68858;SDS011;55864;49.238;8.092;2022-07-31T02:31:43;6.60;;;2.85;;
68858;SDS011;55864;49.238;8.092;2022-07-31T02:33:46;7.15;;;2.97;;
68858;SDS011;55864;49.238;8.092;2022-07-31T02:35:52;8.25;;;3.20;;
68858;SDS011;55864;49.238;8.092;2022-07-31T02:37:55;5.47;;;2.78;;
68858;SDS011;55864;49.238;8.092;2022-07-31T02:39:57;5.07;;;2.83;;
68858;SDS011;55864;49.238;8.092;2022-07-31T02:42:00;7.70;;;3.22;;
68858;SDS011;55864;49.238;8.092;2022-07-31T02:44:01;6.53;;;2.92;;
68858;SDS011;55864;49.238;8.092;2022-07-31T02:46:02;5.70;;;2.70;;
68858;SDS011;55864;49.238;8.092;2022-07-31T02:48:05;5.93;;;2.92;;
68858;SDS011;55864;49.238;8.092;2022-07-31T02:50:07;6.70;;;2.58;;
68858;SDS011;55864;49.238;8.092;2022-07-31T02:52:10;6.50;;;2.58;;
68858;SDS011;55864;49.238;8.092;2022-07-31T02:54:11;5.67;;;2.73;;
68858;SDS011;55864;49.238;8.092;2022-07-31T02:56:12;7.75;;;3.03;;
68858;SDS011;55864;49.238;8.092;2022-07-31T02:58:15;7.13;;;2.80;;
68858;SDS011;55864;49.238;8.092;2022-07-31T03:00:18;6.57;;;2.88;;
68858;SDS011;55864;49.238;8.092;2022-07-31T03:02:22;8.38;;;2.90;;
68858;SDS011;55864;49.238;8.092;2022-07-31T03:04:23;5.93;;;2.65;;
68858;SDS011;55864;49.238;8.092;2022-07-31T03:06:23;5.95;;;2.60;;
68858;SDS011;55864;49.238;8.092;2022-07-31T03:08:25;6.97;;;2.80;;
68858;SDS011;55864;49.238;8.092;2022-07-31T03:10:28;5.72;;;2.83;;
68858;SDS011;55864;49.238;8.092;2022-07-31T03:12:36;6.63;;;3.00;;
68858;SDS011;55864;49.238;8.092;2022-07-31T03:14:38;6.03;;;3.03;;
68858;SDS011;55864;49.238;8.092;2022-07-31T03:16:39;8.23;;;3.05;;
68858;SDS011;55864;49.238;8.092;2022-07-31T03:18:41;6.30;;;2.80;;
68858;SDS011;55864;49.238;8.092;2022-07-31T03:20:43;7.05;;;2.88;;
68858;SDS011;55864;49.238;8.092;2022-07-31T03:22:44;7.25;;;2.60;;
68858;SDS011;55864;49.238;8.092;2022-07-31T03:24:47;7.80;;;2.80;;
68858;SDS011;55864;49.238;8.092;2022-07-31T03:26:48;5.97;;;2.50;;
68858;SDS011;55864;49.238;8.092;2022-07-31T03:28:49;8.10;;;2.80;;
68858;SDS011;55864;49.238;8.092;2022-07-31T03:30:50;6.32;;;2.70;;
68858;SDS011;55864;49.238;8.092;2022-07-31T03:32:52;5.38;;;2.60;;
68858;SDS011;55864;49.238;8.092;2022-07-31T03:34:53;11.60;;;3.10;;
68858;SDS011;55864;49.238;8.092;2022-07-31T03:36:54;6.15;;;2.80;;
68858;SDS011;55864;49.238;8.092;2022-07-31T03:38:55;6.30;;;2.45;;
68858;SDS011;55864;49.238;8.092;2022-07-31T03:41:06;5.05;;;2.33;;
68858;SDS011;55864;49.238;8.092;2022-07-31T03:43:07;6.03;;;2.60;;
68858;SDS011;55864;49.238;8.092;2022-07-31T03:45:08;6.90;;;2.50;;
68858;SDS011;55864;49.238;8.092;2022-07-31T03:47:10;6.32;;;2.60;;
68858;SDS011;55864;49.238;8.092;2022-07-31T03:49:11;6.55;;;2.60;;
68858;SDS011;55864;49.238;8.092;2022-07-31T03:51:13;5.15;;;2.45;;
68858;SDS011;55864;49.238;8.092;2022-07-31T03:53:14;4.90;;;2.63;;
68858;SDS011;55864;49.238;8.092;2022-07-31T03:55:18;5.03;;;2.70;;
68858;SDS011;55864;49.238;8.092;2022-07-31T03:57:20;5.88;;;2.80;;
68858;SDS011;55864;49.238;8.092;2022-07-31T03:59:23;5.40;;;2.58;;
68858;SDS011;55864;49.238;8.092;2022-07-31T04:01:25;7.00;;;2.70;;
68858;SDS011;55864;49.238;8.092;2022-07-31T04:03:30;7.22;;;3.00;;
68858;SDS011;55864;49.238;8.092;2022-07-31T04:05:49;5.50;;;2.55;;
68858;SDS011;55864;49.238;8.092;2022-07-31T04:07:50;5.97;;;2.85;;
68858;SDS011;55864;49.238;8.092;2022-07-31T04:09:52;6.90;;;2.95;;
68858;SDS011;55864;49.238;8.092;2022-07-31T04:11:54;6.75;;;2.80;;
68858;SDS011;55864;49.238;8.092;2022-07-31T04:13:56;5.38;;;2.45;;
68858;SDS011;55864;49.238;8.092;2022-07-31T04:15:56;5.38;;;2.58;;
68858;SDS011;55864;49.238;8.092;2022-07-31T04:17:57;5.55;;;2.70;;
68858;SDS011;55864;49.238;8.092;2022-07-31T04:20:04;5.88;;;2.47;;
68858;SDS011;55864;49.238;8.092;2022-07-31T04:22:07;6.90;;;2.65;;
68858;SDS011;55864;49.238;8.092;2022-07-31T04:24:07;7.38;;;2.58;;
68858;SDS011;55864;49.238;8.092;2022-07-31T04:26:40;5.28;;;2.53;;
68858;SDS011;55864;49.238;8.092;2022-07-31T04:28:41;5.35;;;2.35;;
68858;SDS011;55864;49.238;8.092;2022-07-31T04:30:43;5.18;;;2.47;;
68858;SDS011;55864;49.238;8.092;2022-07-31T04:32:44;5.65;;;2.60;;
68858;SDS011;55864;49.238;8.092;2022-07-31T04:34:47;6.15;;;2.50;;
68858;SDS011;55864;49.238;8.092;2022-07-31T04:36:47;5.97;;;2.38;;
68858;SDS011;55864;49.238;8.092;2022-07-31T04:38:48;5.47;;;2.50;;
68858;SDS011;55864;49.238;8.092;2022-07-31T04:40:49;5.50;;;2.60;;
68858;SDS011;55864;49.238;8.092;2022-07-31T04:42:50;7.15;;;2.75;;
68858;SDS011;55864;49.238;8.092;2022-07-31T04:44:51;8.32;;;3.50;;
68858;SDS011;55864;49.238;8.092;2022-07-31T04:46:53;7.28;;;2.90;;
68858;SDS011;55864;49.238;8.092;2022-07-31T04:48:58;7.90;;;3.00;;
68858;SDS011;55864;49.238;8.092;2022-07-31T04:51:00;6.95;;;2.85;;
68858;SDS011;55864;49.238;8.092;2022-07-31T04:53:01;6.75;;;2.50;;
68858;SDS011;55864;49.238;8.092;2022-07-31T04:55:07;7.63;;;2.80;;
68858;SDS011;55864;49.238;8.092;2022-07-31T04:57:08;8.10;;;3.20;;
68858;SDS011;55864;49.238;8.092;2022-07-31T04:59:10;6.22;;;2.75;;
68858;SDS011;55864;49.238;8.092;2022-07-31T05:01:14;6.72;;;2.60;;
68858;SDS011;55864;49.238;8.092;2022-07-31T05:03:16;6.28;;;2.85;;
68858;SDS011;55864;49.238;8.092;2022-07-31T05:05:16;10.07;;;2.97;;
68858;SDS011;55864;49.238;8.092;2022-07-31T05:07:17;9.38;;;2.92;;
68858;SDS011;55864;49.238;8.092;2022-07-31T05:09:19;10.00;;;3.25;;
68858;SDS011;55864;49.238;8.092;2022-07-31T05:13:22;5.40;;;2.58;;
68858;SDS011;55864;49.238;8.092;2022-07-31T05:15:23;6.20;;;3.00;;
68858;SDS011;55864;49.238;8.092;2022-07-31T05:17:24;6.38;;;3.10;;
68858;SDS011;55864;49.238;8.092;2022-07-31T05:19:35;7.20;;;3.10;;
68858;SDS011;55864;49.238;8.092;2022-07-31T05:21:54;6.03;;;2.90;;
68858;SDS011;55864;49.238;8.092;2022-07-31T05:24:04;6.40;;;3.00;;
68858;SDS011;55864;49.238;8.092;2022-07-31T05:28:18;7.13;;;2.92;;
68858;SDS011;55864;49.238;8.092;2022-07-31T05:30:19;7.53;;;2.88;;
68858;SDS011;55864;49.238;8.092;2022-07-31T05:32:20;8.02;;;2.70;;
68858;SDS011;55864;49.238;8.092;2022-07-31T05:34:20;7.93;;;2.92;;
68858;SDS011;55864;49.238;8.092;2022-07-31T05:36:23;6.82;;;3.20;;
68858;SDS011;55864;49.238;8.092;2022-07-31T05:38:25;5.90;;;2.60;;
68858;SDS011;55864;49.238;8.092;2022-07-31T05:40:46;6.45;;;2.80;;
68858;SDS011;55864;49.238;8.092;2022-07-31T05:43:12;7.13;;;2.90;;
68858;SDS011;55864;49.238;8.092;2022-07-31T05:45:37;7.18;;;2.92;;
68858;SDS011;55864;49.238;8.092;2022-07-31T05:47:38;7.10;;;3.00;;
68858;SDS011;55864;49.238;8.092;2022-07-31T05:49:38;8.48;;;3.05;;
68858;SDS011;55864;49.238;8.092;2022-07-31T05:51:42;6.57;;;2.90;;
68858;SDS011;55864;49.238;8.092;2022-07-31T05:53:43;8.73;;;2.80;;
68858;SDS011;55864;49.238;8.092;2022-07-31T05:56:03;6.60;;;2.70;;
68858;SDS011;55864;49.238;8.092;2022-07-31T05:58:15;6.80;;;2.88;;
68858;SDS011;55864;49.238;8.092;2022-07-31T06:00:17;6.57;;;2.70;;
68858;SDS011;55864;49.238;8.092;2022-07-31T06:02:18;7.65;;;3.10;;
68858;SDS011;55864;49.238;8.092;2022-07-31T06:04:48;10.43;;;3.58;;
68858;SDS011;55864;49.238;8.092;2022-07-31T06:06:50;6.25;;;2.78;;
68858;SDS011;55864;49.238;8.092;2022-07-31T06:08:51;7.88;;;2.72;;
68858;SDS011;55864;49.238;8.092;2022-07-31T06:10:51;9.85;;;3.30;;
68858;SDS011;55864;49.238;8.092;2022-07-31T06:12:52;5.63;;;2.63;;
68858;SDS011;55864;49.238;8.092;2022-07-31T06:14:53;5.55;;;2.63;;
68858;SDS011;55864;49.238;8.092;2022-07-31T06:17:10;7.97;;;2.70;;
68858;SDS011;55864;49.238;8.092;2022-07-31T06:19:12;7.07;;;3.35;;
68858;SDS011;55864;49.238;8.092;2022-07-31T06:21:12;7.28;;;2.72;;
68858;SDS011;55864;49.238;8.092;2022-07-31T06:23:14;5.20;;;2.60;;
68858;SDS011;55864;49.238;8.092;2022-07-31T06:25:15;5.68;;;2.90;;
68858;SDS011;55864;49.238;8.092;2022-07-31T06:27:16;6.20;;;3.10;;
68858;SDS011;55864;49.238;8.092;2022-07-31T06:29:16;5.60;;;2.80;;
68858;SDS011;55864;49.238;8.092;2022-07-31T06:31:17;6.78;;;2.90;;
68858;SDS011;55864;49.238;8.092;2022-07-31T06:33:18;6.18;;;2.83;;
68858;SDS011;55864;49.238;8.092;2022-07-31T06:35:19;6.22;;;2.67;;
68858;SDS011;55864;49.238;8.092;2022-07-31T06:39:44;7.10;;;2.90;;
68858;SDS011;55864;49.238;8.092;2022-07-31T06:42:20;5.78;;;2.65;;
68858;SDS011;55864;49.238;8.092;2022-07-31T06:44:37;5.35;;;2.70;;
68858;SDS011;55864;49.238;8.092;2022-07-31T06:46:56;6.85;;;3.05;;
68858;SDS011;55864;49.238;8.092;2022-07-31T06:49:15;9.90;;;3.03;;
68858;SDS011;55864;49.238;8.092;2022-07-31T06:51:15;6.28;;;2.85;;
68858;SDS011;55864;49.238;8.092;2022-07-31T06:53:20;5.97;;;2.45;;
68858;SDS011;55864;49.238;8.092;2022-07-31T06:55:22;6.50;;;2.60;;
68858;SDS011;55864;49.238;8.092;2022-07-31T06:57:23;5.15;;;2.60;;
68858;SDS011;55864;49.238;8.092;2022-07-31T06:59:24;5.82;;;2.42;;
68858;SDS011;55864;49.238;8.092;2022-07-31T07:01:25;5.25;;;2.42;;
68858;SDS011;55864;49.238;8.092;2022-07-31T07:03:25;5.45;;;2.40;;
68858;SDS011;55864;49.238;8.092;2022-07-31T07:05:26;5.90;;;2.50;;
68858;SDS011;55864;49.238;8.092;2022-07-31T07:09:31;6.75;;;2.28;;
68858;SDS011;55864;49.238;8.092;2022-07-31T07:11:33;5.20;;;2.38;;
68858;SDS011;55864;49.238;8.092;2022-07-31T07:13:34;6.97;;;2.40;;
68858;SDS011;55864;49.238;8.092;2022-07-31T07:15:34;7.75;;;2.63;;
68858;SDS011;55864;49.238;8.092;2022-07-31T07:17:35;6.70;;;2.40;;
68858;SDS011;55864;49.238;8.092;2022-07-31T07:19:38;5.10;;;2.20;;
68858;SDS011;55864;49.238;8.092;2022-07-31T07:21:39;5.40;;;2.55;;
68858;SDS011;55864;49.238;8.092;2022-07-31T07:23:39;5.30;;;2.38;;
68858;SDS011;55864;49.238;8.092;2022-07-31T07:25:50;6.78;;;2.40;;
68858;SDS011;55864;49.238;8.092;2022-07-31T07:27:52;7.10;;;2.60;;
68858;SDS011;55864;49.238;8.092;2022-07-31T07:29:52;4.73;;;2.53;;
68858;SDS011;55864;49.238;8.092;2022-07-31T07:31:53;6.40;;;2.90;;
68858;SDS011;55864;49.238;8.092;2022-07-31T07:33:54;6.00;;;2.70;;
68858;SDS011;55864;49.238;8.092;2022-07-31T07:35:56;8.25;;;2.58;;
68858;SDS011;55864;49.238;8.092;2022-07-31T07:37:57;7.25;;;2.50;;
68858;SDS011;55864;49.238;8.092;2022-07-31T07:39:58;5.93;;;2.30;;
68858;SDS011;55864;49.238;8.092;2022-07-31T07:41:59;4.75;;;2.35;;
68858;SDS011;55864;49.238;8.092;2022-07-31T07:44:01;5.28;;;2.40;;
68858;SDS011;55864;49.238;8.092;2022-07-31T07:46:03;8.10;;;2.25;;
68858;SDS011;55864;49.238;8.092;2022-07-31T07:48:04;6.45;;;2.70;;
68858;SDS011;55864;49.238;8.092;2022-07-31T07:50:08;5.25;;;2.47;;
68858;SDS011;55864;49.238;8.092;2022-07-31T07:52:30;5.22;;;2.25;;
68858;SDS011;55864;49.238;8.092;2022-07-31T07:55:06;6.05;;;2.60;;
68858;SDS011;55864;49.238;8.092;2022-07-31T07:57:26;7.57;;;2.67;;
68858;SDS011;55864;49.238;8.092;2022-07-31T07:59:47;6.10;;;2.63;;
68858;SDS011;55864;49.238;8.092;2022-07-31T08:02:06;5.40;;;2.45;;
68858;SDS011;55864;49.238;8.092;2022-07-31T08:04:07;5.47;;;2.40;;
68858;SDS011;55864;49.238;8.092;2022-07-31T08:06:08;5.20;;;2.40;;
68858;SDS011;55864;49.238;8.092;2022-07-31T08:08:09;6.47;;;2.40;;
68858;SDS011;55864;49.238;8.092;2022-07-31T08:10:35;7.20;;;2.80;;
68858;SDS011;55864;49.238;8.092;2022-07-31T08:12:43;5.10;;;2.30;;
68858;SDS011;55864;49.238;8.092;2022-07-31T08:14:51;8.25;;;2.55;;
68858;SDS011;55864;49.238;8.092;2022-07-31T08:17:24;5.63;;;2.55;;
68858;SDS011;55864;49.238;8.092;2022-07-31T08:19:24;5.60;;;2.45;;
68858;SDS011;55864;49.238;8.092;2022-07-31T08:21:25;8.40;;;2.40;;
68858;SDS011;55864;49.238;8.092;2022-07-31T08:23:26;6.32;;;2.20;;
68858;SDS011;55864;49.238;8.092;2022-07-31T08:25:26;5.13;;;2.38;;
68858;SDS011;55864;49.238;8.092;2022-07-31T08:27:27;6.78;;;2.65;;
68858;SDS011;55864;49.238;8.092;2022-07-31T08:29:28;6.85;;;2.58;;
68858;SDS011;55864;49.238;8.092;2022-07-31T08:31:39;5.25;;;2.20;;
68858;SDS011;55864;49.238;8.092;2022-07-31T08:34:04;7.43;;;2.40;;
68858;SDS011;55864;49.238;8.092;2022-07-31T08:36:06;7.35;;;2.60;;
68858;SDS011;55864;49.238;8.092;2022-07-31T08:38:06;6.68;;;2.30;;
68858;SDS011;55864;49.238;8.092;2022-07-31T08:40:15;6.07;;;2.55;;
68858;SDS011;55864;49.238;8.092;2022-07-31T08:42:17;5.93;;;2.17;;
68858;SDS011;55864;49.238;8.092;2022-07-31T08:44:18;7.30;;;2.55;;
68858;SDS011;55864;49.238;8.092;2022-07-31T08:46:19;5.65;;;2.50;;
68858;SDS011;55864;49.238;8.092;2022-07-31T08:48:22;5.70;;;2.63;;
68858;SDS011;55864;49.238;8.092;2022-07-31T08:50:26;6.10;;;2.40;;
68858;SDS011;55864;49.238;8.092;2022-07-31T08:52:28;5.97;;;2.30;;
68858;SDS011;55864;49.238;8.092;2022-07-31T08:54:34;5.85;;;2.50;;
68858;SDS011;55864;49.238;8.092;2022-07-31T08:56:37;5.22;;;2.28;;
68858;SDS011;55864;49.238;8.092;2022-07-31T08:58:39;5.83;;;2.77;;
68858;SDS011;55864;49.238;8.092;2022-07-31T09:00:41;5.50;;;2.40;;
68858;SDS011;55864;49.238;8.092;2022-07-31T09:02:42;6.45;;;2.40;;
68858;SDS011;55864;49.238;8.092;2022-07-31T09:05:03;5.57;;;2.60;;
68858;SDS011;55864;49.238;8.092;2022-07-31T09:07:08;5.63;;;2.28;;
68858;SDS011;55864;49.238;8.092;2022-07-31T09:09:09;6.95;;;2.45;;
68858;SDS011;55864;49.238;8.092;2022-07-31T09:11:11;5.88;;;2.70;;
68858;SDS011;55864;49.238;8.092;2022-07-31T09:13:22;6.78;;;2.30;;
68858;SDS011;55864;49.238;8.092;2022-07-31T09:15:25;7.93;;;2.63;;
68858;SDS011;55864;49.238;8.092;2022-07-31T09:17:32;6.65;;;2.60;;
68858;SDS011;55864;49.238;8.092;2022-07-31T09:19:35;8.65;;;2.72;;
68858;SDS011;55864;49.238;8.092;2022-07-31T09:21:50;5.70;;;2.75;;
68858;SDS011;55864;49.238;8.092;2022-07-31T09:23:50;7.18;;;2.58;;
68858;SDS011;55864;49.238;8.092;2022-07-31T09:25:52;9.68;;;2.50;;
68858;SDS011;55864;49.238;8.092;2022-07-31T09:27:59;8.95;;;2.80;;
68858;SDS011;55864;49.238;8.092;2022-07-31T09:30:00;10.25;;;2.85;;
68858;SDS011;55864;49.238;8.092;2022-07-31T09:32:23;5.47;;;2.38;;
68858;SDS011;55864;49.238;8.092;2022-07-31T09:34:41;6.38;;;2.50;;
68858;SDS011;55864;49.238;8.092;2022-07-31T09:36:49;9.07;;;2.60;;
68858;SDS011;55864;49.238;8.092;2022-07-31T09:39:12;5.60;;;2.42;;
68858;SDS011;55864;49.238;8.092;2022-07-31T09:41:32;6.30;;;2.40;;
68858;SDS011;55864;49.238;8.092;2022-07-31T09:43:52;5.75;;;2.50;;
68858;SDS011;55864;49.238;8.092;2022-07-31T09:45:56;8.27;;;2.35;;
68858;SDS011;55864;49.238;8.092;2022-07-31T09:48:01;6.32;;;1.90;;
68858;SDS011;55864;49.238;8.092;2022-07-31T09:50:03;9.48;;;2.50;;
68858;SDS011;55864;49.238;8.092;2022-07-31T09:52:06;28.70;;;3.58;;
68858;SDS011;55864;49.238;8.092;2022-07-31T09:54:20;8.65;;;2.38;;
68858;SDS011;55864;49.238;8.092;2022-07-31T09:56:28;17.40;;;2.72;;
68858;SDS011;55864;49.238;8.092;2022-07-31T09:58:30;4.93;;;2.25;;
68858;SDS011;55864;49.238;8.092;2022-07-31T10:00:30;5.25;;;2.25;;
68858;SDS011;55864;49.238;8.092;2022-07-31T10:02:31;4.53;;;2.10;;
68858;SDS011;55864;49.238;8.092;2022-07-31T10:04:34;6.05;;;2.40;;
68858;SDS011;55864;49.238;8.092;2022-07-31T10:06:37;12.35;;;2.30;;
68858;SDS011;55864;49.238;8.092;2022-07-31T10:08:42;7.97;;;2.40;;
68858;SDS011;55864;49.238;8.092;2022-07-31T10:10:58;9.00;;;2.40;;
68858;SDS011;55864;49.238;8.092;2022-07-31T10:13:05;5.25;;;2.13;;
68858;SDS011;55864;49.238;8.092;2022-07-31T10:15:08;6.53;;;2.05;;
68858;SDS011;55864;49.238;8.092;2022-07-31T10:17:11;7.57;;;2.45;;
68858;SDS011;55864;49.238;8.092;2022-07-31T10:19:26;7.20;;;2.50;;
68858;SDS011;55864;49.238;8.092;2022-07-31T10:21:52;5.35;;;2.28;;
68858;SDS011;55864;49.238;8.092;2022-07-31T10:24:02;5.35;;;2.17;;
68858;SDS011;55864;49.238;8.092;2022-07-31T10:26:04;7.03;;;2.00;;
68858;SDS011;55864;49.238;8.092;2022-07-31T10:28:05;6.25;;;2.13;;
68858;SDS011;55864;49.238;8.092;2022-07-31T10:30:07;5.40;;;2.33;;
68858;SDS011;55864;49.238;8.092;2022-07-31T10:32:13;4.72;;;2.00;;
68858;SDS011;55864;49.238;8.092;2022-07-31T10:34:49;8.05;;;2.58;;
68858;SDS011;55864;49.238;8.092;2022-07-31T10:37:06;5.28;;;2.30;;
68858;SDS011;55864;49.238;8.092;2022-07-31T10:39:33;7.05;;;2.30;;
68858;SDS011;55864;49.238;8.092;2022-07-31T10:41:51;5.70;;;2.13;;
68858;SDS011;55864;49.238;8.092;2022-07-31T10:43:58;5.22;;;2.05;;
68858;SDS011;55864;49.238;8.092;2022-07-31T10:46:27;5.03;;;2.15;;
68858;SDS011;55864;49.238;8.092;2022-07-31T10:48:50;7.63;;;2.10;;
68858;SDS011;55864;49.238;8.092;2022-07-31T10:51:20;5.90;;;2.10;;
68858;SDS011;55864;49.238;8.092;2022-07-31T10:53:32;5.47;;;2.28;;
68858;SDS011;55864;49.238;8.092;2022-07-31T10:55:41;5.53;;;2.05;;
68858;SDS011;55864;49.238;8.092;2022-07-31T10:57:51;6.43;;;2.05;;
68858;SDS011;55864;49.238;8.092;2022-07-31T11:00:09;7.60;;;2.40;;
68858;SDS011;55864;49.238;8.092;2022-07-31T11:02:42;6.32;;;2.22;;
68858;SDS011;55864;49.238;8.092;2022-07-31T11:05:10;5.10;;;2.10;;
68858;SDS011;55864;49.238;8.092;2022-07-31T11:07:30;6.85;;;2.20;;
68858;SDS011;55864;49.238;8.092;2022-07-31T11:09:51;4.95;;;2.00;;
68858;SDS011;55864;49.238;8.092;2022-07-31T11:12:17;9.20;;;2.28;;
68858;SDS011;55864;49.238;8.092;2022-07-31T11:14:36;5.63;;;2.05;;
68858;SDS011;55864;49.238;8.092;2022-07-31T11:16:55;5.78;;;2.40;;
68858;SDS011;55864;49.238;8.092;2022-07-31T11:19:13;5.75;;;2.10;;
68858;SDS011;55864;49.238;8.092;2022-07-31T11:21:13;6.70;;;2.53;;
68858;SDS011;55864;49.238;8.092;2022-07-31T11:23:15;4.90;;;2.10;;
68858;SDS011;55864;49.238;8.092;2022-07-31T11:25:16;5.13;;;2.08;;
68858;SDS011;55864;49.238;8.092;2022-07-31T11:27:27;4.93;;;2.15;;
68858;SDS011;55864;49.238;8.092;2022-07-31T11:29:29;5.28;;;2.03;;
68858;SDS011;55864;49.238;8.092;2022-07-31T11:31:31;9.90;;;2.33;;
68858;SDS011;55864;49.238;8.092;2022-07-31T11:33:32;5.78;;;2.20;;
68858;SDS011;55864;49.238;8.092;2022-07-31T11:35:34;5.80;;;1.80;;
68858;SDS011;55864;49.238;8.092;2022-07-31T11:37:35;4.65;;;1.83;;
68858;SDS011;55864;49.238;8.092;2022-07-31T11:39:36;5.35;;;2.00;;
68858;SDS011;55864;49.238;8.092;2022-07-31T11:41:39;6.28;;;1.90;;
68858;SDS011;55864;49.238;8.092;2022-07-31T11:43:43;6.78;;;2.13;;
68858;SDS011;55864;49.238;8.092;2022-07-31T11:45:45;6.03;;;2.00;;
68858;SDS011;55864;49.238;8.092;2022-07-31T11:47:46;5.25;;;2.13;;
68858;SDS011;55864;49.238;8.092;2022-07-31T11:49:47;5.72;;;2.30;;
68858;SDS011;55864;49.238;8.092;2022-07-31T11:51:48;4.57;;;2.00;;
68858;SDS011;55864;49.238;8.092;2022-07-31T11:53:49;7.75;;;2.30;;
68858;SDS011;55864;49.238;8.092;2022-07-31T11:55:52;5.95;;;2.13;;
68858;SDS011;55864;49.238;8.092;2022-07-31T11:57:53;8.55;;;2.20;;
68858;SDS011;55864;49.238;8.092;2022-07-31T11:59:55;6.40;;;2.00;;
68858;SDS011;55864;49.238;8.092;2022-07-31T12:02:02;5.63;;;1.88;;
68858;SDS011;55864;49.238;8.092;2022-07-31T12:04:04;6.22;;;2.13;;
68858;SDS011;55864;49.238;8.092;2022-07-31T12:06:05;8.13;;;2.17;;
68858;SDS011;55864;49.238;8.092;2022-07-31T12:08:07;5.07;;;1.92;;
68858;SDS011;55864;49.238;8.092;2022-07-31T12:10:10;5.30;;;2.00;;
68858;SDS011;55864;49.238;8.092;2022-07-31T12:12:11;6.97;;;2.10;;
68858;SDS011;55864;49.238;8.092;2022-07-31T12:14:12;5.55;;;2.05;;
68858;SDS011;55864;49.238;8.092;2022-07-31T12:16:14;9.52;;;2.28;;
68858;SDS011;55864;49.238;8.092;2022-07-31T12:18:15;5.70;;;2.28;;
68858;SDS011;55864;49.238;8.092;2022-07-31T12:20:16;5.78;;;2.30;;
68858;SDS011;55864;49.238;8.092;2022-07-31T12:22:17;6.30;;;2.13;;
68858;SDS011;55864;49.238;8.092;2022-07-31T12:24:18;5.45;;;2.13;;
68858;SDS011;55864;49.238;8.092;2022-07-31T12:26:22;4.63;;;2.00;;
68858;SDS011;55864;49.238;8.092;2022-07-31T12:28:24;7.95;;;2.53;;
68858;SDS011;55864;49.238;8.092;2022-07-31T12:30:24;5.63;;;2.42;;
68858;SDS011;55864;49.238;8.092;2022-07-31T12:32:26;7.20;;;2.47;;
68858;SDS011;55864;49.238;8.092;2022-07-31T12:34:27;7.03;;;2.30;;
68858;SDS011;55864;49.238;8.092;2022-07-31T12:36:29;7.40;;;2.10;;
68858;SDS011;55864;49.238;8.092;2022-07-31T12:38:29;6.10;;;2.30;;
68858;SDS011;55864;49.238;8.092;2022-07-31T12:40:30;6.15;;;2.30;;
68858;SDS011;55864;49.238;8.092;2022-07-31T12:42:31;6.43;;;2.28;;
68858;SDS011;55864;49.238;8.092;2022-07-31T12:44:32;10.27;;;2.50;;